Time;durP1;ratioP1;P1;durP2;ratioP2;P2;SDS_P1;SDS_P2;PMS_P1;PMS_P2;Temp;Humidity;BMP_temperature;BMP_pressure;BME280_temperature;BME280_humidity;BME280_pressure;Samples;Min_cycle;Max_cycle;Signal;HPM_P1;HPM_P2
2021/11/14 00:02:09;;;;;;;5.93;3.60;;;3.80;91.80;;;;;;5060195;28;20059;-85
2021/11/14 00:04:35;;;;;;;4.03;3.63;;;3.80;91.90;;;;;;5073937;28;20083;-84
2021/11/14 00:07:01;;;;;;;5.43;3.85;;;3.80;92.00;;;;;;5075510;28;20086;-85
2021/11/14 00:09:28;;;;;;;6.32;3.47;;;3.80;92.10;;;;;;5069308;28;20017;-84
2021/11/14 00:11:57;;;;;;;3.83;3.08;;;3.70;92.10;;;;;;5075497;28;20021;-83
2021/11/14 00:14:23;;;;;;;4.28;2.78;;;3.70;91.90;;;;;;5072549;28;20031;-84
2021/11/14 00:16:50;;;;;;;3.17;2.55;;;3.70;91.90;;;;;;5069562;28;20119;-84
2021/11/14 00:19:17;;;;;;;3.30;2.57;;;3.60;91.70;;;;;;5074822;28;20095;-83
2021/11/14 00:21:44;;;;;;;2.70;2.50;;;3.50;91.50;;;;;;5075272;28;20289;-83
2021/11/14 00:24:11;;;;;;;4.25;2.65;;;3.50;91.40;;;;;;5075636;28;20025;-83
2021/11/14 00:26:38;;;;;;;3.80;2.53;;;3.50;91.30;;;;;;5075159;28;20045;-84
2021/11/14 00:29:05;;;;;;;5.28;2.97;;;3.50;91.20;;;;;;5075151;28;20024;-83
2021/11/14 00:31:31;;;;;;;2.63;1.92;;;3.50;91.20;;;;;;5074830;28;20032;-84
2021/11/14 00:33:57;;;;;;;3.08;2.47;;;3.50;91.20;;;;;;5075733;28;20105;-83
2021/11/14 00:36:25;;;;;;;3.20;2.90;;;3.50;91.00;;;;;;5075915;28;20078;-85
2021/11/14 00:38:52;;;;;;;2.85;2.25;;;3.50;90.90;;;;;;5078915;28;20373;-87
2021/11/14 00:41:20;;;;;;;2.77;1.93;;;3.50;90.90;;;;;;5086402;28;20039;-86
2021/11/14 00:43:46;;;;;;;2.30;1.58;;;3.60;90.80;;;;;;5083098;28;20024;-89
2021/11/14 00:46:14;;;;;;;2.00;1.35;;;3.60;90.00;;;;;;5076150;28;20075;-86
2021/11/14 00:48:43;;;;;;;2.15;1.27;;;3.50;89.80;;;;;;5081825;28;20046;-86
2021/11/14 00:51:20;;;;;;;4.60;1.67;;;3.60;89.80;;;;;;5089771;28;20040;-84
2021/11/14 00:53:46;;;;;;;3.17;1.67;;;3.60;89.60;;;;;;5093845;28;20113;-86
2021/11/14 00:56:11;;;;;;;4.22;1.60;;;3.60;88.90;;;;;;5085919;28;20024;-85
2021/11/14 00:58:37;;;;;;;2.45;1.30;;;3.60;88.50;;;;;;5086403;28;20021;-87
2021/11/14 01:01:03;;;;;;;4.13;1.95;;;3.60;88.60;;;;;;5078113;28;20040;-87
2021/11/14 01:03:29;;;;;;;3.63;2.10;;;3.70;88.90;;;;;;5075633;28;20032;-88
2021/11/14 01:05:55;;;;;;;4.07;2.22;;;3.70;89.10;;;;;;5078950;28;20020;-86
2021/11/14 01:08:21;;;;;;;5.53;2.42;;;3.70;89.10;;;;;;5082209;28;20024;-88
2021/11/14 01:10:50;;;;;;;3.15;1.73;;;3.70;89.10;;;;;;5076833;28;20032;-88
2021/11/14 01:13:17;;;;;;;2.92;1.90;;;3.80;88.30;;;;;;5075520;28;20025;-88
2021/11/14 01:15:44;;;;;;;1.85;1.17;;;3.70;88.90;;;;;;5085268;28;20028;-87
2021/11/14 01:18:12;;;;;;;2.17;1.55;;;3.70;88.10;;;;;;5079084;28;20033;-88
2021/11/14 01:20:38;;;;;;;;;;;3.70;87.90;;;;;;5074424;28;20561;-88
2021/11/14 01:23:06;;;;;;;3.10;1.45;;;3.70;87.80;;;;;;5076239;28;19912;-88
2021/11/14 01:25:33;;;;;;;2.58;1.50;;;3.60;87.60;;;;;;5081563;28;20013;-86
2021/11/14 01:27:59;;;;;;;2.40;1.60;;;3.60;87.60;;;;;;5099031;28;20063;-87
2021/11/14 01:30:31;;;;;;;3.30;1.42;;;3.70;87.60;;;;;;5094883;28;20021;-87
2021/11/14 01:32:59;;;;;;;1.48;1.38;;;3.70;87.50;;;;;;5077916;28;20031;-87
2021/11/14 01:35:26;;;;;;;2.30;1.58;;;3.70;87.50;;;;;;5076406;28;20072;-87
2021/11/14 01:37:52;;;;;;;2.95;1.98;;;3.60;87.60;;;;;;5071488;28;20074;-88
2021/11/14 01:40:24;;;;;;;1.63;1.35;;;3.60;87.60;;;;;;5073328;28;20025;-87
2021/11/14 01:42:50;;;;;;;1.85;1.50;;;3.70;87.20;;;;;;5076239;28;20095;-86
2021/11/14 01:45:17;;;;;;;1.95;1.40;;;3.70;87.00;;;;;;5074810;28;20024;-88
2021/11/14 01:47:43;;;;;;;2.88;1.85;;;3.70;87.00;;;;;;5073895;28;20017;-86
2021/11/14 01:50:12;;;;;;;4.07;2.25;;;3.70;87.00;;;;;;5073162;28;20515;-86
2021/11/14 01:52:40;;;;;;;3.97;3.00;;;3.80;87.20;;;;;;5075064;28;20100;-86
2021/11/14 01:55:08;;;;;;;5.40;2.58;;;3.80;87.60;;;;;;5088677;28;20036;-87
2021/11/14 01:57:33;;;;;;;2.80;2.30;;;3.80;88.00;;;;;;5078226;28;20516;-86
2021/11/14 01:59:59;;;;;;;5.28;2.90;;;3.80;88.40;;;;;;5076466;28;20060;-86
2021/11/14 02:02:25;;;;;;;3.15;2.30;;;3.90;88.70;;;;;;5082397;28;20029;-85
2021/11/14 02:04:52;;;;;;;3.70;2.40;;;3.90;88.70;;;;;;5074131;28;20020;-86
2021/11/14 02:07:18;;;;;;;3.00;2.33;;;3.80;89.00;;;;;;5088051;28;20033;-86
2021/11/14 02:09:45;;;;;;;3.45;2.50;;;3.70;89.10;;;;;;5076455;28;20283;-88
2021/11/14 02:12:11;;;;;;;3.70;2.03;;;3.70;89.50;;;;;;5076113;28;20099;-86
2021/11/14 02:14:38;;;;;;;3.30;2.70;;;3.70;89.70;;;;;;5073409;28;20489;-86
2021/11/14 02:17:05;;;;;;;3.58;2.75;;;3.60;90.00;;;;;;5073811;28;20031;-87
2021/11/14 02:19:31;;;;;;;3.30;2.60;;;3.60;90.20;;;;;;5075834;28;20025;-86
2021/11/14 02:21:57;;;;;;;3.08;2.50;;;3.50;90.30;;;;;;5075503;28;20054;-86
2021/11/14 02:24:23;;;;;;;4.15;2.60;;;3.50;90.60;;;;;;5072103;28;20115;-86
2021/11/14 02:26:49;;;;;;;3.40;2.70;;;3.50;90.80;;;;;;5073572;28;20033;-86
2021/11/14 02:29:15;;;;;;;3.95;2.92;;;3.50;91.00;;;;;;5073410;28;20020;-86
2021/11/14 02:31:42;;;;;;;3.08;2.75;;;3.50;91.30;;;;;;5074644;28;20020;-86
2021/11/14 02:34:08;;;;;;;3.05;2.40;;;3.30;91.50;;;;;;5075538;28;20070;-87
2021/11/14 02:36:34;;;;;;;2.03;1.83;;;3.30;91.30;;;;;;5084047;28;20029;-86
2021/11/14 02:39:00;;;;;;;1.98;1.67;;;3.20;91.10;;;;;;5081164;28;20031;-86
2021/11/14 02:41:26;;;;;;;3.80;2.08;;;3.20;91.10;;;;;;5075745;28;20127;-88
2021/11/14 02:43:54;;;;;;;2.28;1.77;;;3.20;90.90;;;;;;5074608;28;20033;-86
2021/11/14 02:46:21;;;;;;;2.47;1.80;;;3.20;90.80;;;;;;5077180;28;20038;-87
2021/11/14 02:48:46;;;;;;;4.13;1.85;;;3.10;90.60;;;;;;5075904;28;20021;-87
2021/11/14 02:51:22;;;;;;;3.70;1.90;;;3.10;90.60;;;;;;5074023;28;20028;-86
2021/11/14 02:53:50;;;;;;;2.83;1.90;;;3.20;90.70;;;;;;5078129;28;20160;-85
2021/11/14 02:56:16;;;;;;;3.13;2.35;;;3.20;90.40;;;;;;5079388;28;20024;-91
2021/11/14 02:58:43;;;;;;;2.42;1.90;;;3.20;90.60;;;;;;5081810;28;20530;-92
2021/11/14 03:01:15;;;;;;;3.72;2.50;;;3.10;90.60;;;;;;5087557;28;20068;-91
2021/11/14 03:03:43;;;;;;;2.65;2.08;;;3.20;90.80;;;;;;5095691;28;20032;-91
2021/11/14 03:06:10;;;;;;;3.22;1.92;;;3.30;90.80;;;;;;5076443;28;20025;-92
2021/11/14 03:08:37;;;;;;;2.70;2.05;;;3.30;90.90;;;;;;5077586;28;20024;-90
2021/11/14 03:11:04;;;;;;;3.13;2.15;;;3.40;90.80;;;;;;5062548;28;20029;-90
2021/11/14 03:13:32;;;;;;;;;;;3.40;90.80;;;;;;5055753;28;20104;-90
2021/11/14 03:16:00;;;;;;;3.20;2.40;;;3.40;90.80;;;;;;5055008;28;19976;-85
2021/11/14 03:18:26;;;;;;;2.30;1.73;;;3.40;90.70;;;;;;5053823;28;20423;-87
2021/11/14 03:20:54;;;;;;;6.20;3.72;;;3.40;90.70;;;;;;5053940;28;20025;-88
2021/11/14 03:23:21;;;;;;;3.95;2.55;;;3.40;90.80;;;;;;5059132;28;20021;-84
2021/11/14 03:25:47;;;;;;;5.13;3.10;;;3.50;90.90;;;;;;5053631;28;20025;-87
2021/11/14 03:28:14;;;;;;;3.95;2.65;;;3.40;90.80;;;;;;5054897;28;20497;-87
2021/11/14 03:30:41;;;;;;;2.80;2.20;;;3.50;90.80;;;;;;5057173;28;20416;-88
2021/11/14 03:33:10;;;;;;;3.80;2.20;;;3.50;90.60;;;;;;5057095;28;20078;-86
2021/11/14 03:35:41;;;;;;;2.30;1.85;;;3.50;90.50;;;;;;5057109;28;20380;-87
2021/11/14 03:38:08;;;;;;;2.78;2.05;;;3.50;90.40;;;;;;5056372;28;20044;-88
2021/11/14 03:40:35;;;;;;;5.47;2.13;;;3.50;90.00;;;;;;5063861;28;20032;-87
2021/11/14 03:43:00;;;;;;;2.70;2.00;;;3.50;89.40;;;;;;5087493;28;20304;-86
2021/11/14 03:45:26;;;;;;;1.65;1.30;;;3.50;89.00;;;;;;5091786;28;20099;-85
2021/11/14 03:47:52;;;;;;;2.78;1.65;;;3.50;87.70;;;;;;5087129;28;20052;-87
2021/11/14 03:50:18;;;;;;;1.75;1.08;;;3.50;87.20;;;;;;5078451;28;20098;-86
2021/11/14 03:52:44;;;;;;;1.50;1.40;;;3.50;86.10;;;;;;5079812;28;20025;-86
2021/11/14 03:55:13;;;;;;;2.72;1.08;;;3.50;85.20;;;;;;5081127;28;20020;-85
2021/11/14 03:57:41;;;;;;;2.78;1.52;;;3.40;85.30;;;;;;5076469;28;20036;-87
2021/11/14 04:00:13;;;;;;;2.38;1.65;;;3.40;85.10;;;;;;5077500;28;20025;-87
2021/11/14 04:02:39;;;;;;;2.08;1.70;;;3.40;84.50;;;;;;5077003;28;20028;-86
2021/11/14 04:05:07;;;;;;;2.10;1.67;;;3.40;84.70;;;;;;5076031;28;20017;-87
2021/11/14 04:07:33;;;;;;;2.53;1.50;;;3.40;84.60;;;;;;5075899;28;20024;-87
2021/11/14 04:09:58;;;;;;;2.88;1.83;;;3.40;84.40;;;;;;5074718;28;20056;-88
2021/11/14 04:12:24;;;;;;;1.90;1.40;;;3.40;84.20;;;;;;5075951;28;20055;-86
2021/11/14 04:14:50;;;;;;;2.03;1.40;;;3.50;84.60;;;;;;5076054;28;20450;-86
2021/11/14 04:17:16;;;;;;;2.08;1.58;;;3.40;83.40;;;;;;5075880;28;20020;-87
2021/11/14 04:19:42;;;;;;;2.60;1.40;;;3.40;83.00;;;;;;5079611;28;20032;-85
2021/11/14 04:22:08;;;;;;;2.42;1.77;;;3.40;82.50;;;;;;5081382;28;20062;-86
2021/11/14 04:24:34;;;;;;;4.45;1.75;;;3.40;82.50;;;;;;5078220;28;20351;-85
2021/11/14 04:27:00;;;;;;;3.17;1.63;;;3.50;82.50;;;;;;5079167;28;20054;-88
2021/11/14 04:29:26;;;;;;;3.30;2.20;;;3.50;82.50;;;;;;5077022;28;20020;-91
2021/11/14 04:31:52;;;;;;;4.45;1.80;;;3.50;82.50;;;;;;5077307;28;20470;-89
2021/11/14 04:34:17;;;;;;;3.88;2.45;;;3.40;82.50;;;;;;5077841;28;20028;-87
2021/11/14 04:36:43;;;;;;;2.10;1.80;;;3.40;82.70;;;;;;5075674;28;20052;-87
2021/11/14 04:39:09;;;;;;;3.30;1.67;;;3.40;82.70;;;;;;5076389;28;20021;-88
2021/11/14 04:41:35;;;;;;;2.72;1.85;;;3.40;82.70;;;;;;5078199;28;20044;-89
2021/11/14 04:44:01;;;;;;;2.10;1.63;;;3.40;82.70;;;;;;5083750;28;20044;-88
2021/11/14 04:46:27;;;;;;;3.08;2.00;;;3.50;82.80;;;;;;5087281;28;20021;-89
2021/11/14 04:48:53;;;;;;;2.15;1.60;;;3.40;82.70;;;;;;5089378;28;20028;-88
2021/11/14 04:51:19;;;;;;;2.25;1.70;;;3.40;82.50;;;;;;5087756;28;20120;-88
2021/11/14 04:53:45;;;;;;;2.25;1.40;;;3.40;82.40;;;;;;5076840;28;20112;-88
2021/11/14 04:56:11;;;;;;;3.58;2.03;;;3.50;82.60;;;;;;5077527;28;20090;-88
2021/11/14 04:58:37;;;;;;;2.05;1.40;;;3.50;82.70;;;;;;5075878;28;20016;-87
2021/11/14 05:01:03;;;;;;;2.15;1.55;;;3.50;82.60;;;;;;5076550;28;20513;-89
2021/11/14 05:03:29;;;;;;;2.33;1.60;;;3.40;82.50;;;;;;5077127;28;20035;-88
2021/11/14 05:05:57;;;;;;;2.60;1.98;;;3.50;82.30;;;;;;5074880;28;20063;-89
2021/11/14 05:08:24;;;;;;;1.88;1.48;;;3.50;82.40;;;;;;5077945;28;20070;-88
2021/11/14 05:10:50;;;;;;;1.70;1.40;;;3.50;82.50;;;;;;5089069;28;20028;-86
2021/11/14 05:13:18;;;;;;;3.60;1.55;;;3.50;82.50;;;;;;5077110;28;20033;-89
2021/11/14 05:15:44;;;;;;;1.90;1.45;;;3.50;82.30;;;;;;5074910;28;20483;-90
2021/11/14 05:18:10;;;;;;;2.40;2.03;;;3.60;82.10;;;;;;5081343;28;20033;-89
2021/11/14 05:20:37;;;;;;;2.60;1.92;;;3.60;82.10;;;;;;5079087;28;20025;-88
2021/11/14 05:23:04;;;;;;;2.40;2.20;;;3.60;82.30;;;;;;5077357;28;20039;-88
2021/11/14 05:25:30;;;;;;;6.25;2.15;;;3.60;82.20;;;;;;5074921;28;20028;-90
2021/11/14 05:27:56;;;;;;;2.55;2.22;;;3.70;82.40;;;;;;5077870;28;20028;-89
2021/11/14 05:30:22;;;;;;;4.00;2.35;;;3.70;82.30;;;;;;5089556;28;20477;-85
2021/11/14 05:32:48;;;;;;;2.60;1.95;;;3.70;82.40;;;;;;5083320;28;20032;-88
2021/11/14 05:35:15;;;;;;;3.25;2.30;;;3.80;82.50;;;;;;5079693;28;20021;-89
2021/11/14 05:37:41;;;;;;;1.83;1.55;;;3.80;82.50;;;;;;5095521;28;20021;-88
2021/11/14 05:40:08;;;;;;;2.80;1.80;;;3.80;82.10;;;;;;5084514;28;20036;-89
2021/11/14 05:42:36;;;;;;;2.03;1.83;;;3.70;81.90;;;;;;5073968;28;20091;-88
2021/11/14 05:45:03;;;;;;;5.32;2.38;;;3.80;82.30;;;;;;5075711;28;20029;-88
2021/11/14 05:47:29;;;;;;;2.08;1.65;;;3.80;82.10;;;;;;5076204;28;20051;-88
2021/11/14 05:49:56;;;;;;;6.57;1.60;;;3.80;81.90;;;;;;5079697;28;20029;-90
2021/11/14 05:52:22;;;;;;;2.40;1.95;;;3.80;81.60;;;;;;5078480;28;20025;-88
2021/11/14 05:54:48;;;;;;;2.25;1.80;;;3.80;81.70;;;;;;5074782;28;20135;-89
2021/11/14 05:57:15;;;;;;;2.85;1.67;;;3.90;81.70;;;;;;5074559;28;20074;-89
2021/11/14 06:00:02;;;;;;;7.20;2.22;;;3.90;81.60;;;;;;5084648;28;20023;-91
2021/11/14 06:05:13;;;;;;;6.22;3.47;;;4.00;82.00;;;;;;5091860;28;19909;-91
2021/11/14 06:07:39;;;;;;;6.50;3.15;;;4.00;82.30;;;;;;5076199;28;20024;-87
2021/11/14 06:10:05;;;;;;;5.57;2.97;;;4.00;82.60;;;;;;5075275;28;20025;-88
2021/11/14 06:12:34;;;;;;;4.78;2.90;;;4.10;82.80;;;;;;5075631;28;20067;-89
2021/11/14 06:15:00;;;;;;;6.57;3.53;;;4.10;82.80;;;;;;5075773;28;20433;-90
2021/11/14 06:17:26;;;;;;;7.30;3.63;;;4.10;82.80;;;;;;5055154;28;20059;-87
2021/11/14 06:19:52;;;;;;;8.27;3.88;;;4.20;82.80;;;;;;5054501;28;20028;-86
2021/11/14 06:22:19;;;;;;;5.28;2.97;;;4.20;82.80;;;;;;5054034;28;20040;-87
2021/11/14 06:24:46;;;;;;;4.57;3.47;;;4.30;82.50;;;;;;5055084;28;20355;-86
2021/11/14 06:27:12;;;;;;;3.90;3.08;;;4.30;82.40;;;;;;5055211;28;20031;-85
2021/11/14 06:29:39;;;;;;;5.57;3.60;;;4.30;82.40;;;;;;5054558;28;20029;-88
2021/11/14 06:32:05;;;;;;;8.15;3.65;;;4.30;82.40;;;;;;5061735;28;20016;-89
2021/11/14 06:34:31;;;;;;;3.08;2.55;;;4.40;82.30;;;;;;5054864;28;20393;-86
2021/11/14 06:36:57;;;;;;;9.27;3.90;;;4.40;82.10;;;;;;5057233;28;20096;-86
2021/11/14 06:39:23;;;;;;;9.50;3.53;;;4.40;82.10;;;;;;5076212;28;20025;-86
2021/11/14 06:41:49;;;;;;;7.28;3.60;;;4.40;82.30;;;;;;5086033;28;20116;-84
2021/11/14 06:44:14;;;;;;;13.43;3.83;;;4.40;82.30;;;;;;5080655;28;20107;-86
2021/11/14 06:46:40;;;;;;;4.47;3.90;;;4.40;82.30;;;;;;5090009;28;20009;-85
2021/11/14 06:49:06;;;;;;;8.65;3.42;;;4.40;82.30;;;;;;5086652;28;20029;-86
2021/11/14 06:51:32;;;;;;;5.80;3.47;;;4.40;82.20;;;;;;5078972;28;20078;-86
2021/11/14 06:53:58;;;;;;;5.32;3.72;;;4.40;82.50;;;;;;5078124;28;20031;-87
2021/11/14 06:56:24;;;;;;;9.73;3.88;;;4.50;82.20;;;;;;5075341;28;20028;-86
2021/11/14 06:58:50;;;;;;;9.80;4.75;;;4.50;82.30;;;;;;5074627;28;20029;-85
2021/11/14 07:01:16;;;;;;;7.80;4.25;;;4.50;82.40;;;;;;5073714;28;20032;-86
2021/11/14 07:03:42;;;;;;;7.63;5.10;;;4.50;82.60;;;;;;5076701;28;20021;-86
2021/11/14 07:06:08;;;;;;;12.38;5.15;;;4.50;82.60;;;;;;5077611;28;20043;-85
2021/11/14 07:08:35;;;;;;;5.25;4.22;;;4.60;82.70;;;;;;5077566;28;20477;-85
2021/11/14 07:11:01;;;;;;;12.02;5.03;;;4.50;82.70;;;;;;5075505;28;20075;-85
2021/11/14 07:13:27;;;;;;;6.55;3.92;;;4.50;83.10;;;;;;5077377;28;20461;-86
2021/11/14 07:15:53;;;;;;;9.27;5.60;;;4.40;83.30;;;;;;5077758;28;20028;-85
2021/11/14 07:18:19;;;;;;;11.57;5.72;;;4.40;83.70;;;;;;5077281;28;20448;-85
2021/11/14 07:20:45;;;;;;;13.55;6.38;;;4.40;84.20;;;;;;5077988;28;20025;-85
2021/11/14 07:23:11;;;;;;;14.65;8.20;;;4.40;84.60;;;;;;5076379;28;20028;-86
2021/11/14 07:25:37;;;;;;;14.27;7.47;;;4.40;84.80;;;;;;5077061;28;20377;-85
2021/11/14 07:28:04;;;;;;;11.73;7.93;;;4.40;85.10;;;;;;5077857;28;20028;-85
2021/11/14 07:30:30;;;;;;;9.65;5.72;;;4.40;85.30;;;;;;5077949;28;20024;-89
2021/11/14 07:32:56;;;;;;;8.73;6.72;;;4.40;85.40;;;;;;5077069;28;20024;-86
2021/11/14 07:35:25;;;;;;;7.80;6.10;;;4.40;85.30;;;;;;5076815;28;20020;-86
2021/11/14 07:37:51;;;;;;;10.25;4.80;;;4.40;85.30;;;;;;5077346;28;20067;-85
2021/11/14 07:40:20;;;;;;;6.47;4.50;;;4.40;85.10;;;;;;5077205;28;20420;-86
2021/11/14 07:42:47;;;;;;;13.32;5.60;;;4.30;85.20;;;;;;5076329;28;20072;-87
2021/11/14 07:45:16;;;;;;;7.65;4.78;;;4.40;85.30;;;;;;5077250;28;20025;-89
2021/11/14 07:47:43;;;;;;;9.73;5.43;;;4.40;85.10;;;;;;5083074;28;20020;-88
2021/11/14 07:50:10;;;;;;;8.93;5.22;;;4.40;84.80;;;;;;5080739;28;20032;-89
2021/11/14 07:52:36;;;;;;;;;;;4.50;85.00;;;;;;5078881;28;20046;-88
2021/11/14 07:55:04;;;;;;;8.25;4.88;;;4.50;85.10;;;;;;5077998;28;20344;-87
2021/11/14 07:57:30;;;;;;;10.15;6.30;;;4.50;85.30;;;;;;5077367;28;20393;-87
2021/11/14 07:59:56;;;;;;;10.90;5.28;;;4.50;85.50;;;;;;5076794;28;20024;-86
2021/11/14 08:02:21;;;;;;;6.85;5.05;;;4.50;85.80;;;;;;5076614;28;20039;-87
2021/11/14 08:04:47;;;;;;;9.50;5.78;;;4.50;86.00;;;;;;5076101;28;20035;-88
2021/11/14 08:07:13;;;;;;;7.90;4.72;;;4.60;85.90;;;;;;5076496;28;20032;-91
2021/11/14 08:09:39;;;;;;;8.13;4.88;;;4.60;85.80;;;;;;5083546;28;20108;-90
2021/11/14 08:12:05;;;;;;;9.60;5.00;;;4.60;85.70;;;;;;5081788;28;20028;-90
2021/11/14 08:14:31;;;;;;;11.98;5.93;;;4.60;85.60;;;;;;5080045;28;20036;-90
2021/11/14 08:16:57;;;;;;;8.00;4.97;;;4.60;85.60;;;;;;5090618;28;20016;-91
2021/11/14 08:19:23;;;;;;;11.80;5.75;;;4.60;85.80;;;;;;5086725;28;20477;-91
2021/11/14 08:21:49;;;;;;;11.02;4.93;;;4.60;86.00;;;;;;5081207;28;20516;-92
2021/11/14 08:24:15;;;;;;;6.05;4.97;;;4.60;86.20;;;;;;5080567;28;20074;-90
2021/11/14 08:26:41;;;;;;;9.55;5.07;;;4.60;86.30;;;;;;5078821;28;20032;-91
2021/11/14 08:29:07;;;;;;;9.60;5.68;;;4.60;86.20;;;;;;5079127;28;20017;-91
2021/11/14 08:31:33;;;;;;;9.85;5.18;;;4.70;86.20;;;;;;5079129;28;20016;-91
2021/11/14 08:34:00;;;;;;;6.05;4.63;;;4.70;86.40;;;;;;5082458;28;20027;-88
2021/11/14 08:36:27;;;;;;;15.95;5.18;;;4.70;86.20;;;;;;5090741;28;20031;-89
2021/11/14 08:38:55;;;;;;;8.45;5.07;;;4.70;86.40;;;;;;5096759;28;20025;-92
2021/11/14 08:41:23;;;;;;;8.43;5.55;;;4.80;86.40;;;;;;5094075;28;20046;-89
2021/11/14 08:43:49;;;;;;;11.88;5.43;;;4.80;86.20;;;;;;5091622;28;20032;-92
2021/11/14 08:46:15;;;;;;;11.23;5.28;;;4.80;86.40;;;;;;5082089;28;20025;-90
2021/11/14 08:48:41;;;;;;;8.18;5.20;;;4.80;86.40;;;;;;5078230;28;20028;-90
2021/11/14 08:51:07;;;;;;;6.85;5.60;;;4.80;86.50;;;;;;5078389;28;20466;-94
2021/11/14 08:53:34;;;;;;;11.88;5.10;;;4.90;86.60;;;;;;5079056;28;20032;-91
2021/11/14 08:56:01;;;;;;;12.13;5.17;;;4.80;86.20;;;;;;5078944;28;20535;-90
2021/11/14 08:58:30;;;;;;;6.85;5.35;;;4.80;86.30;;;;;;5080672;28;20277;-91
2021/11/14 09:00:56;;;;;;;10.70;5.13;;;4.70;86.40;;;;;;5082495;28;20025;-90
2021/11/14 09:03:23;;;;;;;9.15;6.10;;;4.80;86.50;;;;;;5078402;28;20040;-91
2021/11/14 09:05:49;;;;;;;12.55;6.85;;;4.70;86.60;;;;;;5078925;28;20104;-93
2021/11/14 09:08:15;;;;;;;9.80;4.78;;;4.70;86.90;;;;;;5062876;28;20462;-91
2021/11/14 09:10:44;;;;;;;9.18;5.38;;;4.80;86.70;;;;;;5072987;28;20027;-85
2021/11/14 09:13:11;;;;;;;9.00;5.82;;;4.70;86.50;;;;;;5073067;28;20017;-85
2021/11/14 09:15:37;;;;;;;9.13;4.20;;;4.70;86.60;;;;;;5084960;28;20016;-85
2021/11/14 09:18:03;;;;;;;8.43;4.53;;;4.70;86.30;;;;;;5082860;28;20092;-84
2021/11/14 09:20:30;;;;;;;5.38;3.97;;;4.60;86.60;;;;;;5079766;28;20073;-86
2021/11/14 09:22:58;;;;;;;7.37;3.80;;;4.50;86.70;;;;;;5076361;28;20114;-85
2021/11/14 09:25:23;;;;;;;;;;;4.50;86.80;;;;;;5072705;28;20078;-85
2021/11/14 09:27:50;;;;;;;4.43;3.03;;;4.50;87.00;;;;;;5071055;28;19904;-85
2021/11/14 09:30:17;;;;;;;5.55;3.72;;;4.40;86.90;;;;;;5071452;28;20047;-83
2021/11/14 09:32:44;;;;;;;5.97;3.78;;;4.40;86.90;;;;;;5074427;28;20072;-84
2021/11/14 09:35:11;;;;;;;5.93;3.87;;;4.40;86.90;;;;;;5072752;28;20155;-85
2021/11/14 09:37:36;;;;;;;5.95;3.70;;;4.30;87.00;;;;;;5073905;28;20253;-87
2021/11/14 09:40:04;;;;;;;7.90;3.72;;;4.40;87.50;;;;;;5072722;28;20021;-85
2021/11/14 09:42:30;;;;;;;;;;;4.50;87.50;;;;;;5062970;28;20071;-86
2021/11/14 09:44:56;;;;;;;8.88;4.13;;;4.60;87.30;;;;;;5071908;28;19943;-88
2021/11/14 09:47:23;;;;;;;3.72;3.17;;;4.60;87.00;;;;;;5082727;28;20029;-93
2021/11/14 09:49:49;;;;;;;6.43;3.90;;;4.50;86.70;;;;;;5077524;28;20024;-91
2021/11/14 09:52:15;;;;;;;5.72;3.40;;;4.50;86.80;;;;;;5080906;28;20048;-90
2021/11/14 09:54:42;;;;;;;10.50;3.65;;;4.50;87.00;;;;;;5086301;28;20021;-88
2021/11/14 09:57:09;;;;;;;5.82;3.35;;;4.50;87.10;;;;;;5078290;28;20491;-87
2021/11/14 09:59:35;;;;;;;7.60;3.80;;;4.50;87.20;;;;;;5082635;28;20102;-86
2021/11/14 10:02:04;;;;;;;14.55;5.30;;;4.50;87.90;;;;;;5075207;28;20048;-87
2021/11/14 10:04:30;;;;;;;29.75;6.70;;;4.60;87.40;;;;;;5073662;28;20584;-85
2021/11/14 10:07:02;;;;;;;4.90;2.55;;;4.60;87.60;;;;;;5072951;28;20086;-86
2021/11/14 10:09:35;;;;;;;4.30;2.85;;;4.60;87.10;;;;;;5079226;28;20020;-86
2021/11/14 10:12:15;;;;;;;5.40;3.55;;;4.50;86.70;;;;;;5074729;28;20420;-88
2021/11/14 10:14:42;;;;;;;5.95;2.67;;;4.40;86.90;;;;;;5075458;28;20052;-86
2021/11/14 10:17:17;;;;;;;5.82;3.85;;;4.40;87.50;;;;;;5078063;28;20020;-90
2021/11/14 10:19:45;;;;;;;5.53;3.15;;;4.40;87.60;;;;;;5076338;28;20024;-85
2021/11/14 10:22:10;;;;;;;4.78;2.92;;;4.50;87.50;;;;;;5073475;28;20028;-81
2021/11/14 10:24:37;;;;;;;5.72;3.00;;;4.50;87.50;;;;;;5073174;28;20031;-82
2021/11/14 10:27:15;;;;;;;8.60;3.60;;;4.50;87.10;;;;;;5073406;28;20068;-81
2021/11/14 10:29:47;;;;;;;7.47;2.97;;;4.50;87.30;;;;;;5074951;28;20033;-81
2021/11/14 10:32:15;;;;;;;4.05;3.05;;;4.50;87.30;;;;;;5074818;28;20039;-82
2021/11/14 10:34:47;;;;;;;12.60;4.57;;;4.40;87.50;;;;;;5077494;28;20017;-81
2021/11/14 10:37:13;;;;;;;4.60;3.28;;;4.40;87.90;;;;;;5075425;28;20017;-81
2021/11/14 10:39:40;;;;;;;7.20;3.65;;;4.40;88.00;;;;;;5073324;28;20032;-82
2021/11/14 10:42:14;;;;;;;12.55;3.88;;;4.50;88.20;;;;;;5072863;28;20083;-82
2021/11/14 10:44:55;;;;;;;4.72;3.70;;;4.40;88.20;;;;;;5071813;28;20025;-82
2021/11/14 10:47:23;;;;;;;4.25;2.88;;;4.40;88.70;;;;;;5073192;28;20086;-80
2021/11/14 10:49:54;;;;;;;3.53;3.00;;;4.30;88.90;;;;;;5073000;28;20382;-82
2021/11/14 10:52:20;;;;;;;7.40;3.60;;;4.40;89.20;;;;;;5073209;28;20024;-82
2021/11/14 10:55:00;;;;;;;6.47;3.60;;;4.40;89.20;;;;;;5072772;28;20029;-82
2021/11/14 10:57:30;;;;;;;4.68;3.22;;;4.40;89.40;;;;;;5072683;28;20024;-82
2021/11/14 10:59:56;;;;;;;4.75;3.85;;;4.50;89.30;;;;;;5072567;28;20525;-82
2021/11/14 11:02:24;;;;;;;4.63;3.20;;;4.60;89.20;;;;;;5072695;28;20397;-82
2021/11/14 11:04:51;;;;;;;;;;;4.60;88.70;;;;;;5072981;28;20027;-83
2021/11/14 11:07:16;;;;;;;5.82;2.85;;;4.50;88.40;;;;;;5072789;28;19950;-81
2021/11/14 11:09:43;;;;;;;4.88;3.05;;;4.20;88.80;;;;;;5073000;28;20029;-82
2021/11/14 11:12:35;;;;;;;6.65;3.42;;;4.20;89.60;;;;;;5072949;28;20058;-84
2021/11/14 11:15:07;;;;;;;6.18;3.22;;;4.10;90.00;;;;;;5071664;28;20098;-81
2021/11/14 11:17:52;;;;;;;9.27;4.80;;;4.00;90.20;;;;;;5072694;28;20412;-83
2021/11/14 11:20:29;;;;;;;5.07;3.65;;;3.90;90.60;;;;;;5072532;28;20485;-81
2021/11/14 11:22:57;;;;;;;6.82;3.38;;;3.70;90.90;;;;;;5072336;28;20920;-81
2021/11/14 11:25:29;;;;;;;5.05;2.85;;;3.60;91.40;;;;;;5072718;28;20384;-82
2021/11/14 11:27:56;;;;;;;5.07;4.07;;;3.60;91.90;;;;;;5072503;28;20032;-82
2021/11/14 11:30:37;;;;;;;5.88;3.72;;;3.50;92.10;;;;;;5076229;28;20116;-81
2021/11/14 11:33:04;;;;;;;6.78;3.63;;;3.50;92.40;;;;;;5078865;28;20096;-82
2021/11/14 11:35:30;;;;;;;4.30;3.38;;;3.60;92.60;;;;;;5074701;28;20021;-82
2021/11/14 11:37:56;;;;;;;6.15;3.20;;;3.60;92.70;;;;;;5074074;28;20070;-82
2021/11/14 11:40:23;;;;;;;4.60;2.92;;;3.60;93.00;;;;;;5072162;28;20040;-81
2021/11/14 11:42:49;;;;;;;5.00;3.20;;;3.60;92.80;;;;;;5072093;28;20083;-80
2021/11/14 11:45:25;;;;;;;8.20;3.88;;;3.60;92.90;;;;;;5072278;28;20386;-83
2021/11/14 11:47:53;;;;;;;6.30;4.32;;;3.40;93.00;;;;;;5072019;28;20455;-82
2021/11/14 11:50:22;;;;;;;;;;;3.30;93.30;;;;;;5075261;28;20028;-82
2021/11/14 11:52:49;;;;;;;4.28;2.85;;;3.30;93.10;;;;;;5075649;28;19915;-81
2021/11/14 11:55:23;;;;;;;7.57;3.42;;;3.10;93.60;;;;;;5076010;28;20500;-81
2021/11/14 11:57:51;;;;;;;6.90;3.63;;;3.10;94.00;;;;;;5076010;28;20028;-84
2021/11/14 12:00:18;;;;;;;5.43;3.13;;;3.10;94.20;;;;;;5075679;28;20033;-81
2021/11/14 12:02:45;;;;;;;9.38;4.65;;;3.00;94.40;;;;;;5076098;28;20029;-82
2021/11/14 12:05:19;;;;;;;6.22;3.75;;;3.00;94.70;;;;;;5075812;28;20438;-84
2021/11/14 12:07:54;;;;;;;7.65;4.40;;;3.00;94.80;;;;;;5075357;28;20036;-81
2021/11/14 12:10:26;;;;;;;7.43;5.00;;;3.10;94.90;;;;;;5075436;28;20023;-82
2021/11/14 12:12:55;;;;;;;6.22;4.53;;;3.10;95.00;;;;;;5075513;28;20032;-81
2021/11/14 12:15:24;;;;;;;6.63;4.72;;;3.10;95.10;;;;;;5080386;28;20025;-81
2021/11/14 12:17:55;;;;;;;6.10;4.28;;;3.00;95.10;;;;;;5079522;28;20024;-82
2021/11/14 12:20:28;;;;;;;6.35;4.45;;;2.90;95.40;;;;;;5075383;28;20021;-83
2021/11/14 12:23:00;;;;;;;7.18;4.78;;;2.90;95.70;;;;;;5075149;28;20025;-83
2021/11/14 12:25:31;;;;;;;7.15;5.63;;;3.00;95.80;;;;;;5078060;28;20347;-82
2021/11/14 12:28:09;;;;;;;7.05;5.13;;;3.00;95.90;;;;;;5079279;28;20182;-91
2021/11/14 12:30:42;;;;;;;5.97;5.18;;;3.10;96.00;;;;;;5084671;28;20025;-91
2021/11/14 12:33:20;;;;;;;7.38;4.97;;;3.10;96.00;;;;;;5075394;28;20033;-89
2021/11/14 12:35:47;;;;;;;;;;;3.10;96.00;;;;;;5076175;28;20108;-84
2021/11/14 12:38:20;;;;;;;;;;;3.10;95.70;;;;;;5076178;28;19904;-83
2021/11/14 12:40:55;;;;;;;7.22;5.13;;;3.00;96.00;;;;;;5076640;28;19904;-84
2021/11/14 12:43:26;;;;;;;5.95;3.92;;;2.90;95.90;;;;;;5076717;28;20033;-83
2021/11/14 12:46:10;;;;;;;5.95;4.32;;;2.90;96.20;;;;;;5083876;28;20092;-83
2021/11/14 12:48:38;;;;;;;4.57;3.83;;;2.80;96.20;;;;;;5070683;28;20097;-83
2021/11/14 12:51:17;;;;;;;4.60;3.65;;;2.70;96.30;;;;;;5076724;28;20055;-84
2021/11/14 12:53:59;;;;;;;7.45;4.68;;;2.60;96.50;;;;;;5068778;28;20016;-82
2021/11/14 12:56:48;;;;;;;5.03;4.32;;;2.50;96.80;;;;;;5070541;28;20036;-84
2021/11/14 12:59:17;;;;;;;5.10;4.50;;;2.50;97.00;;;;;;5074437;28;20036;-85
2021/11/14 13:01:47;;;;;;;9.23;4.47;;;2.50;97.10;;;;;;5055655;28;20086;-82
2021/11/14 13:04:28;;;;;;;6.15;4.63;;;2.50;97.20;;;;;;5074470;28;20044;-82